sensor_id;sensor_type;location;lat;lon;timestamp;P1;durP1;ratioP1;P2;durP2;ratioP2
6852;SDS011;3465;42.144;24.722;2023-04-24T00:01:22;10.73;;;5.90;;
6852;SDS011;3465;42.144;24.722;2023-04-24T00:03:48;12.60;;;6.70;;
6852;SDS011;3465;42.144;24.722;2023-04-24T00:06:14;15.43;;;6.27;;
6852;SDS011;3465;42.144;24.722;2023-04-24T00:08:41;10.87;;;5.80;;
6852;SDS011;3465;42.144;24.722;2023-04-24T00:11:07;9.73;;;6.23;;
6852;SDS011;3465;42.144;24.722;2023-04-24T00:13:34;13.60;;;6.57;;
6852;SDS011;3465;42.144;24.722;2023-04-24T00:15:59;18.40;;;7.03;;
6852;SDS011;3465;42.144;24.722;2023-04-24T00:18:25;13.70;;;6.63;;
6852;SDS011;3465;42.144;24.722;2023-04-24T00:20:50;14.80;;;6.87;;
6852;SDS011;3465;42.144;24.722;2023-04-24T00:23:16;12.80;;;6.83;;
6852;SDS011;3465;42.144;24.722;2023-04-24T00:25:44;17.17;;;7.60;;
6852;SDS011;3465;42.144;24.722;2023-04-24T00:28:09;19.60;;;7.53;;
6852;SDS011;3465;42.144;24.722;2023-04-24T00:30:34;17.47;;;7.60;;
6852;SDS011;3465;42.144;24.722;2023-04-24T00:33:00;20.23;;;7.13;;
6852;SDS011;3465;42.144;24.722;2023-04-24T00:35:26;10.73;;;6.40;;
6852;SDS011;3465;42.144;24.722;2023-04-24T00:37:51;13.93;;;7.00;;
6852;SDS011;3465;42.144;24.722;2023-04-24T00:40:17;13.57;;;7.40;;
6852;SDS011;3465;42.144;24.722;2023-04-24T00:42:43;10.03;;;6.73;;
6852;SDS011;3465;42.144;24.722;2023-04-24T00:45:11;11.30;;;7.27;;
6852;SDS011;3465;42.144;24.722;2023-04-24T00:47:37;12.17;;;7.37;;
6852;SDS011;3465;42.144;24.722;2023-04-24T00:50:04;14.00;;;8.13;;
6852;SDS011;3465;42.144;24.722;2023-04-24T00:52:31;13.47;;;7.70;;
6852;SDS011;3465;42.144;24.722;2023-04-24T00:54:57;11.70;;;7.37;;
6852;SDS011;3465;42.144;24.722;2023-04-24T00:57:24;12.50;;;7.50;;
6852;SDS011;3465;42.144;24.722;2023-04-24T00:59:55;14.63;;;8.37;;
6852;SDS011;3465;42.144;24.722;2023-04-24T01:02:28;15.03;;;7.50;;
6852;SDS011;3465;42.144;24.722;2023-04-24T01:04:54;13.77;;;7.87;;
6852;SDS011;3465;42.144;24.722;2023-04-24T01:07:20;13.80;;;8.27;;
6852;SDS011;3465;42.144;24.722;2023-04-24T01:09:46;13.90;;;7.77;;
6852;SDS011;3465;42.144;24.722;2023-04-24T01:12:14;12.07;;;7.97;;
6852;SDS011;3465;42.144;24.722;2023-04-24T01:14:40;16.20;;;8.27;;
6852;SDS011;3465;42.144;24.722;2023-04-24T01:17:05;12.23;;;8.83;;
6852;SDS011;3465;42.144;24.722;2023-04-24T01:19:34;21.97;;;9.07;;
6852;SDS011;3465;42.144;24.722;2023-04-24T01:21:59;23.47;;;8.73;;
6852;SDS011;3465;42.144;24.722;2023-04-24T01:24:27;20.77;;;9.00;;
6852;SDS011;3465;42.144;24.722;2023-04-24T01:26:53;16.80;;;8.57;;
6852;SDS011;3465;42.144;24.722;2023-04-24T01:29:22;14.03;;;8.83;;
6852;SDS011;3465;42.144;24.722;2023-04-24T01:31:47;15.83;;;8.67;;
6852;SDS011;3465;42.144;24.722;2023-04-24T01:34:13;14.17;;;8.47;;
6852;SDS011;3465;42.144;24.722;2023-04-24T01:36:39;16.27;;;8.90;;
6852;SDS011;3465;42.144;24.722;2023-04-24T01:39:06;17.00;;;8.47;;
6852;SDS011;3465;42.144;24.722;2023-04-24T01:41:32;14.93;;;8.33;;
6852;SDS011;3465;42.144;24.722;2023-04-24T01:43:57;23.47;;;9.20;;
6852;SDS011;3465;42.144;24.722;2023-04-24T01:46:23;17.97;;;8.73;;
6852;SDS011;3465;42.144;24.722;2023-04-24T01:48:50;15.93;;;8.30;;
6852;SDS011;3465;42.144;24.722;2023-04-24T01:51:16;15.93;;;8.37;;
6852;SDS011;3465;42.144;24.722;2023-04-24T01:53:42;11.83;;;7.50;;
6852;SDS011;3465;42.144;24.722;2023-04-24T01:56:07;13.30;;;7.83;;
6852;SDS011;3465;42.144;24.722;2023-04-24T01:58:34;14.23;;;8.70;;
6852;SDS011;3465;42.144;24.722;2023-04-24T02:00:59;13.27;;;8.03;;
6852;SDS011;3465;42.144;24.722;2023-04-24T02:03:25;14.27;;;8.47;;
6852;SDS011;3465;42.144;24.722;2023-04-24T02:05:51;18.03;;;8.43;;
6852;SDS011;3465;42.144;24.722;2023-04-24T02:08:20;15.50;;;7.87;;
6852;SDS011;3465;42.144;24.722;2023-04-24T02:10:45;11.70;;;7.67;;
6852;SDS011;3465;42.144;24.722;2023-04-24T02:13:13;14.77;;;7.73;;
6852;SDS011;3465;42.144;24.722;2023-04-24T02:15:39;16.60;;;7.93;;
6852;SDS011;3465;42.144;24.722;2023-04-24T02:18:04;12.70;;;7.63;;
6852;SDS011;3465;42.144;24.722;2023-04-24T02:20:31;14.53;;;7.77;;
6852;SDS011;3465;42.144;24.722;2023-04-24T02:22:59;13.90;;;8.33;;
6852;SDS011;3465;42.144;24.722;2023-04-24T02:25:24;18.23;;;8.43;;
6852;SDS011;3465;42.144;24.722;2023-04-24T02:27:50;13.37;;;7.47;;
6852;SDS011;3465;42.144;24.722;2023-04-24T02:30:15;18.37;;;8.23;;
6852;SDS011;3465;42.144;24.722;2023-04-24T02:32:41;15.77;;;8.53;;
6852;SDS011;3465;42.144;24.722;2023-04-24T02:35:06;13.60;;;7.90;;
6852;SDS011;3465;42.144;24.722;2023-04-24T02:37:32;14.23;;;8.30;;
6852;SDS011;3465;42.144;24.722;2023-04-24T02:39:57;17.20;;;9.13;;
6852;SDS011;3465;42.144;24.722;2023-04-24T02:42:25;14.23;;;8.77;;
6852;SDS011;3465;42.144;24.722;2023-04-24T02:44:51;12.10;;;8.50;;
6852;SDS011;3465;42.144;24.722;2023-04-24T02:47:16;12.90;;;8.37;;
6852;SDS011;3465;42.144;24.722;2023-04-24T02:49:42;15.30;;;7.97;;
6852;SDS011;3465;42.144;24.722;2023-04-24T02:52:07;13.50;;;8.43;;
6852;SDS011;3465;42.144;24.722;2023-04-24T02:54:32;10.97;;;8.00;;
6852;SDS011;3465;42.144;24.722;2023-04-24T02:56:59;13.47;;;8.43;;
6852;SDS011;3465;42.144;24.722;2023-04-24T02:59:26;14.80;;;8.70;;
6852;SDS011;3465;42.144;24.722;2023-04-24T03:01:52;13.27;;;8.67;;
6852;SDS011;3465;42.144;24.722;2023-04-24T03:04:18;17.10;;;8.13;;
6852;SDS011;3465;42.144;24.722;2023-04-24T03:06:45;22.80;;;8.43;;
6852;SDS011;3465;42.144;24.722;2023-04-24T03:09:11;18.80;;;8.10;;
6852;SDS011;3465;42.144;24.722;2023-04-24T03:11:36;20.57;;;9.40;;
6852;SDS011;3465;42.144;24.722;2023-04-24T03:14:01;15.40;;;8.40;;
6852;SDS011;3465;42.144;24.722;2023-04-24T03:16:27;14.47;;;8.50;;
6852;SDS011;3465;42.144;24.722;2023-04-24T03:18:52;14.33;;;9.00;;
6852;SDS011;3465;42.144;24.722;2023-04-24T03:21:18;14.33;;;9.37;;
6852;SDS011;3465;42.144;24.722;2023-04-24T03:23:49;15.33;;;9.27;;
6852;SDS011;3465;42.144;24.722;2023-04-24T03:26:14;16.00;;;9.40;;
6852;SDS011;3465;42.144;24.722;2023-04-24T03:28:40;18.50;;;9.97;;
6852;SDS011;3465;42.144;24.722;2023-04-24T03:31:05;21.00;;;10.90;;
6852;SDS011;3465;42.144;24.722;2023-04-24T03:33:31;18.60;;;10.13;;
6852;SDS011;3465;42.144;24.722;2023-04-24T03:35:56;21.43;;;11.20;;
6852;SDS011;3465;42.144;24.722;2023-04-24T03:38:21;16.60;;;10.20;;
6852;SDS011;3465;42.144;24.722;2023-04-24T03:40:47;17.93;;;11.23;;
6852;SDS011;3465;42.144;24.722;2023-04-24T03:43:12;17.80;;;10.90;;
6852;SDS011;3465;42.144;24.722;2023-04-24T03:45:41;17.00;;;10.97;;
6852;SDS011;3465;42.144;24.722;2023-04-24T03:48:06;21.93;;;12.43;;
6852;SDS011;3465;42.144;24.722;2023-04-24T03:50:32;19.90;;;11.43;;
6852;SDS011;3465;42.144;24.722;2023-04-24T03:52:58;22.17;;;12.67;;
6852;SDS011;3465;42.144;24.722;2023-04-24T03:55:23;22.03;;;12.33;;
6852;SDS011;3465;42.144;24.722;2023-04-24T03:57:48;24.40;;;12.67;;
6852;SDS011;3465;42.144;24.722;2023-04-24T04:00:14;21.77;;;12.70;;
6852;SDS011;3465;42.144;24.722;2023-04-24T04:02:40;22.90;;;12.47;;
6852;SDS011;3465;42.144;24.722;2023-04-24T04:05:06;21.83;;;12.63;;
6852;SDS011;3465;42.144;24.722;2023-04-24T04:07:33;24.80;;;11.87;;
6852;SDS011;3465;42.144;24.722;2023-04-24T04:09:58;22.53;;;12.77;;
6852;SDS011;3465;42.144;24.722;2023-04-24T04:12:23;21.87;;;12.63;;
6852;SDS011;3465;42.144;24.722;2023-04-24T04:14:49;17.77;;;11.13;;
6852;SDS011;3465;42.144;24.722;2023-04-24T04:17:14;24.77;;;11.27;;
6852;SDS011;3465;42.144;24.722;2023-04-24T04:19:40;21.50;;;11.53;;
6852;SDS011;3465;42.144;24.722;2023-04-24T04:22:05;20.13;;;11.63;;
6852;SDS011;3465;42.144;24.722;2023-04-24T04:24:33;23.20;;;12.07;;
6852;SDS011;3465;42.144;24.722;2023-04-24T04:26:58;27.37;;;13.37;;
6852;SDS011;3465;42.144;24.722;2023-04-24T04:29:24;32.43;;;16.10;;
6852;SDS011;3465;42.144;24.722;2023-04-24T04:31:50;33.97;;;14.00;;
6852;SDS011;3465;42.144;24.722;2023-04-24T04:34:16;32.73;;;14.13;;
6852;SDS011;3465;42.144;24.722;2023-04-24T04:36:41;26.30;;;13.73;;
6852;SDS011;3465;42.144;24.722;2023-04-24T04:39:07;23.07;;;12.13;;
6852;SDS011;3465;42.144;24.722;2023-04-24T04:41:33;26.43;;;12.43;;
6852;SDS011;3465;42.144;24.722;2023-04-24T04:44:00;20.63;;;11.97;;
6852;SDS011;3465;42.144;24.722;2023-04-24T04:46:26;21.30;;;12.07;;
6852;SDS011;3465;42.144;24.722;2023-04-24T04:48:52;25.70;;;12.60;;
6852;SDS011;3465;42.144;24.722;2023-04-24T04:51:19;22.33;;;11.40;;
6852;SDS011;3465;42.144;24.722;2023-04-24T04:53:44;24.73;;;11.00;;
6852;SDS011;3465;42.144;24.722;2023-04-24T04:56:10;23.33;;;11.30;;
6852;SDS011;3465;42.144;24.722;2023-04-24T04:58:35;18.07;;;10.70;;
6852;SDS011;3465;42.144;24.722;2023-04-24T05:01:01;20.10;;;9.97;;
6852;SDS011;3465;42.144;24.722;2023-04-24T05:03:27;21.43;;;10.67;;
6852;SDS011;3465;42.144;24.722;2023-04-24T05:05:52;22.13;;;10.27;;
6852;SDS011;3465;42.144;24.722;2023-04-24T05:08:18;19.33;;;9.87;;
6852;SDS011;3465;42.144;24.722;2023-04-24T05:10:43;20.10;;;9.97;;
6852;SDS011;3465;42.144;24.722;2023-04-24T05:13:08;20.00;;;10.17;;
6852;SDS011;3465;42.144;24.722;2023-04-24T05:15:34;24.13;;;10.30;;
6852;SDS011;3465;42.144;24.722;2023-04-24T05:17:59;24.00;;;10.17;;
6852;SDS011;3465;42.144;24.722;2023-04-24T05:20:25;16.80;;;8.90;;
6852;SDS011;3465;42.144;24.722;2023-04-24T05:22:50;15.13;;;9.30;;
6852;SDS011;3465;42.144;24.722;2023-04-24T05:25:16;17.20;;;9.20;;
6852;SDS011;3465;42.144;24.722;2023-04-24T05:27:41;13.60;;;8.87;;
6852;SDS011;3465;42.144;24.722;2023-04-24T05:30:07;18.73;;;9.87;;
6852;SDS011;3465;42.144;24.722;2023-04-24T05:32:33;18.93;;;9.30;;
6852;SDS011;3465;42.144;24.722;2023-04-24T05:34:58;21.57;;;10.17;;
6852;SDS011;3465;42.144;24.722;2023-04-24T05:37:24;20.17;;;9.33;;
6852;SDS011;3465;42.144;24.722;2023-04-24T05:39:49;17.30;;;8.90;;
6852;SDS011;3465;42.144;24.722;2023-04-24T05:42:14;14.80;;;8.53;;
6852;SDS011;3465;42.144;24.722;2023-04-24T05:44:40;14.60;;;7.93;;
6852;SDS011;3465;42.144;24.722;2023-04-24T05:47:05;20.77;;;8.67;;
6852;SDS011;3465;42.144;24.722;2023-04-24T05:49:31;16.13;;;8.80;;
6852;SDS011;3465;42.144;24.722;2023-04-24T05:51:56;19.63;;;8.13;;
6852;SDS011;3465;42.144;24.722;2023-04-24T05:54:22;18.57;;;7.90;;
6852;SDS011;3465;42.144;24.722;2023-04-24T05:56:48;13.93;;;8.33;;
6852;SDS011;3465;42.144;24.722;2023-04-24T05:59:14;19.53;;;7.83;;
6852;SDS011;3465;42.144;24.722;2023-04-24T06:01:40;21.90;;;9.00;;
6852;SDS011;3465;42.144;24.722;2023-04-24T06:04:05;16.90;;;7.10;;
6852;SDS011;3465;42.144;24.722;2023-04-24T06:06:31;12.83;;;6.90;;
6852;SDS011;3465;42.144;24.722;2023-04-24T06:08:57;11.43;;;6.77;;
6852;SDS011;3465;42.144;24.722;2023-04-24T06:11:23;18.03;;;7.30;;
6852;SDS011;3465;42.144;24.722;2023-04-24T06:13:52;21.07;;;7.40;;
6852;SDS011;3465;42.144;24.722;2023-04-24T06:16:18;13.47;;;6.17;;
6852;SDS011;3465;42.144;24.722;2023-04-24T06:18:43;14.30;;;6.80;;
6852;SDS011;3465;42.144;24.722;2023-04-24T06:21:09;19.03;;;7.00;;
6852;SDS011;3465;42.144;24.722;2023-04-24T06:23:35;15.52;;;6.40;;
6852;SDS011;3465;42.144;24.722;2023-04-24T06:26:01;17.27;;;7.13;;
6852;SDS011;3465;42.144;24.722;2023-04-24T06:28:26;14.73;;;7.25;;
6852;SDS011;3465;42.144;24.722;2023-04-24T06:30:51;17.10;;;6.47;;
6852;SDS011;3465;42.144;24.722;2023-04-24T06:33:17;10.90;;;6.90;;
6852;SDS011;3465;42.144;24.722;2023-04-24T06:35:42;16.48;;;6.40;;
6852;SDS011;3465;42.144;24.722;2023-04-24T06:38:08;16.00;;;6.97;;
6852;SDS011;3465;42.144;24.722;2023-04-24T06:40:33;16.45;;;6.78;;
6852;SDS011;3465;42.144;24.722;2023-04-24T06:42:59;14.20;;;6.75;;
6852;SDS011;3465;42.144;24.722;2023-04-24T06:45:25;14.80;;;6.55;;
6852;SDS011;3465;42.144;24.722;2023-04-24T06:47:50;15.98;;;6.63;;
6852;SDS011;3465;42.144;24.722;2023-04-24T06:50:16;18.90;;;6.70;;
6852;SDS011;3465;42.144;24.722;2023-04-24T06:52:41;13.32;;;6.70;;
6852;SDS011;3465;42.144;24.722;2023-04-24T06:55:07;14.98;;;6.35;;
6852;SDS011;3465;42.144;24.722;2023-04-24T06:57:33;10.00;;;6.13;;
6852;SDS011;3465;42.144;24.722;2023-04-24T06:59:58;9.38;;;5.85;;
6852;SDS011;3465;42.144;24.722;2023-04-24T07:02:24;17.58;;;6.38;;
6852;SDS011;3465;42.144;24.722;2023-04-24T07:04:50;12.35;;;5.65;;
6852;SDS011;3465;42.144;24.722;2023-04-24T07:07:15;9.98;;;5.95;;
6852;SDS011;3465;42.144;24.722;2023-04-24T07:09:41;13.13;;;6.80;;
6852;SDS011;3465;42.144;24.722;2023-04-24T07:12:07;14.85;;;6.97;;
6852;SDS011;3465;42.144;24.722;2023-04-24T07:14:33;12.65;;;6.65;;
6852;SDS011;3465;42.144;24.722;2023-04-24T07:16:59;8.80;;;5.13;;
6852;SDS011;3465;42.144;24.722;2023-04-24T07:19:25;10.30;;;5.55;;
6852;SDS011;3465;42.144;24.722;2023-04-24T07:21:50;12.35;;;5.88;;
6852;SDS011;3465;42.144;24.722;2023-04-24T07:24:15;23.50;;;6.13;;
6852;SDS011;3465;42.144;24.722;2023-04-24T07:26:41;16.00;;;5.97;;
6852;SDS011;3465;42.144;24.722;2023-04-24T07:29:07;9.93;;;5.00;;
6852;SDS011;3465;42.144;24.722;2023-04-24T07:31:32;11.93;;;4.78;;
6852;SDS011;3465;42.144;24.722;2023-04-24T07:33:58;12.98;;;5.47;;
6852;SDS011;3465;42.144;24.722;2023-04-24T07:36:24;9.13;;;5.30;;
6852;SDS011;3465;42.144;24.722;2023-04-24T07:38:50;13.77;;;5.75;;
6852;SDS011;3465;42.144;24.722;2023-04-24T07:41:16;10.02;;;5.40;;
6852;SDS011;3465;42.144;24.722;2023-04-24T07:43:41;10.60;;;4.78;;
6852;SDS011;3465;42.144;24.722;2023-04-24T07:46:07;9.38;;;4.95;;
6852;SDS011;3465;42.144;24.722;2023-04-24T07:48:33;11.15;;;5.32;;
6852;SDS011;3465;42.144;24.722;2023-04-24T07:50:59;15.02;;;5.38;;
6852;SDS011;3465;42.144;24.722;2023-04-24T07:53:24;8.68;;;5.40;;
6852;SDS011;3465;42.144;24.722;2023-04-24T07:55:50;13.75;;;5.18;;
6852;SDS011;3465;42.144;24.722;2023-04-24T07:58:15;13.85;;;5.22;;
6852;SDS011;3465;42.144;24.722;2023-04-24T08:00:40;9.70;;;5.55;;
6852;SDS011;3465;42.144;24.722;2023-04-24T08:03:06;9.35;;;4.85;;
6852;SDS011;3465;42.144;24.722;2023-04-24T08:05:31;9.50;;;5.75;;
6852;SDS011;3465;42.144;24.722;2023-04-24T08:07:57;9.40;;;4.88;;
6852;SDS011;3465;42.144;24.722;2023-04-24T08:10:23;14.52;;;5.80;;
6852;SDS011;3465;42.144;24.722;2023-04-24T08:12:49;7.70;;;5.25;;
6852;SDS011;3465;42.144;24.722;2023-04-24T08:15:14;11.43;;;5.55;;
6852;SDS011;3465;42.144;24.722;2023-04-24T08:17:40;14.27;;;5.60;;
6852;SDS011;3465;42.144;24.722;2023-04-24T08:20:05;7.80;;;5.88;;
6852;SDS011;3465;42.144;24.722;2023-04-24T08:22:35;9.50;;;5.65;;
6852;SDS011;3465;42.144;24.722;2023-04-24T08:25:00;14.23;;;5.85;;
6852;SDS011;3465;42.144;24.722;2023-04-24T08:27:26;13.40;;;5.75;;
6852;SDS011;3465;42.144;24.722;2023-04-24T08:29:53;9.60;;;5.63;;
6852;SDS011;3465;42.144;24.722;2023-04-24T08:32:18;8.75;;;5.60;;
6852;SDS011;3465;42.144;24.722;2023-04-24T08:34:44;14.23;;;7.60;;
6852;SDS011;3465;42.144;24.722;2023-04-24T08:37:10;11.00;;;6.00;;
6852;SDS011;3465;42.144;24.722;2023-04-24T08:39:36;13.48;;;7.13;;
6852;SDS011;3465;42.144;24.722;2023-04-24T08:42:01;12.93;;;7.05;;
6852;SDS011;3465;42.144;24.722;2023-04-24T08:44:33;9.55;;;5.55;;
6852;SDS011;3465;42.144;24.722;2023-04-24T08:47:03;16.23;;;5.03;;
6852;SDS011;3465;42.144;24.722;2023-04-24T08:49:30;10.90;;;5.60;;
6852;SDS011;3465;42.144;24.722;2023-04-24T08:51:56;23.77;;;18.02;;
6852;SDS011;3465;42.144;24.722;2023-04-24T08:54:21;18.60;;;5.95;;
6852;SDS011;3465;42.144;24.722;2023-04-24T08:56:47;11.10;;;6.88;;
6852;SDS011;3465;42.144;24.722;2023-04-24T08:59:14;13.00;;;5.43;;
6852;SDS011;3465;42.144;24.722;2023-04-24T09:01:40;12.57;;;7.35;;
6852;SDS011;3465;42.144;24.722;2023-04-24T09:04:07;14.52;;;9.23;;
6852;SDS011;3465;42.144;24.722;2023-04-24T09:06:38;11.77;;;9.10;;
6852;SDS011;3465;42.144;24.722;2023-04-24T09:09:04;15.20;;;7.18;;
6852;SDS011;3465;42.144;24.722;2023-04-24T09:11:30;14.02;;;9.63;;
6852;SDS011;3465;42.144;24.722;2023-04-24T09:13:58;10.80;;;7.45;;
6852;SDS011;3465;42.144;24.722;2023-04-24T09:16:24;13.57;;;6.28;;
6852;SDS011;3465;42.144;24.722;2023-04-24T09:18:50;11.68;;;5.78;;
6852;SDS011;3465;42.144;24.722;2023-04-24T09:21:16;12.60;;;8.88;;
6852;SDS011;3465;42.144;24.722;2023-04-24T09:23:42;11.93;;;8.80;;
6852;SDS011;3465;42.144;24.722;2023-04-24T09:26:08;11.35;;;5.13;;
6852;SDS011;3465;42.144;24.722;2023-04-24T09:28:38;16.33;;;6.60;;
6852;SDS011;3465;42.144;24.722;2023-04-24T09:33:32;11.80;;;5.60;;
6852;SDS011;3465;42.144;24.722;2023-04-24T09:35:57;13.50;;;5.70;;
6852;SDS011;3465;42.144;24.722;2023-04-24T09:38:36;13.75;;;7.07;;
6852;SDS011;3465;42.144;24.722;2023-04-24T09:41:03;9.07;;;5.38;;
6852;SDS011;3465;42.144;24.722;2023-04-24T09:43:30;14.02;;;7.55;;
6852;SDS011;3465;42.144;24.722;2023-04-24T09:45:57;9.10;;;5.68;;
6852;SDS011;3465;42.144;24.722;2023-04-24T09:48:30;10.15;;;6.60;;
6852;SDS011;3465;42.144;24.722;2023-04-24T09:51:00;10.63;;;5.20;;
6852;SDS011;3465;42.144;24.722;2023-04-24T09:53:27;8.45;;;5.40;;
6852;SDS011;3465;42.144;24.722;2023-04-24T09:55:53;8.88;;;5.55;;
6852;SDS011;3465;42.144;24.722;2023-04-24T09:58:21;9.13;;;6.28;;
6852;SDS011;3465;42.144;24.722;2023-04-24T10:00:52;12.25;;;6.38;;
6852;SDS011;3465;42.144;24.722;2023-04-24T10:03:20;12.05;;;6.03;;
6852;SDS011;3465;42.144;24.722;2023-04-24T10:05:48;10.32;;;7.13;;
6852;SDS011;3465;42.144;24.722;2023-04-24T10:08:13;9.50;;;5.47;;
6852;SDS011;3465;42.144;24.722;2023-04-24T10:10:40;12.55;;;7.97;;
6852;SDS011;3465;42.144;24.722;2023-04-24T10:13:11;11.55;;;7.38;;
6852;SDS011;3465;42.144;24.722;2023-04-24T10:15:38;9.90;;;6.00;;
6852;SDS011;3465;42.144;24.722;2023-04-24T10:18:05;10.30;;;6.05;;
6852;SDS011;3465;42.144;24.722;2023-04-24T10:20:32;11.23;;;6.65;;
6852;SDS011;3465;42.144;24.722;2023-04-24T10:22:58;10.88;;;6.28;;
6852;SDS011;3465;42.144;24.722;2023-04-24T10:25:32;11.05;;;5.72;;
6852;SDS011;3465;42.144;24.722;2023-04-24T10:27:59;11.48;;;6.47;;
6852;SDS011;3465;42.144;24.722;2023-04-24T10:30:26;12.27;;;8.43;;
6852;SDS011;3465;42.144;24.722;2023-04-24T10:32:54;10.77;;;6.20;;
6852;SDS011;3465;42.144;24.722;2023-04-24T10:35:19;9.88;;;6.03;;
6852;SDS011;3465;42.144;24.722;2023-04-24T10:37:51;6.80;;;5.68;;
6852;SDS011;3465;42.144;24.722;2023-04-24T10:40:29;9.20;;;6.43;;
6852;SDS011;3465;42.144;24.722;2023-04-24T10:42:56;8.60;;;5.25;;
6852;SDS011;3465;42.144;24.722;2023-04-24T10:45:23;9.07;;;4.90;;
6852;SDS011;3465;42.144;24.722;2023-04-24T10:47:58;8.95;;;4.97;;
6852;SDS011;3465;42.144;24.722;2023-04-24T10:53:07;8.70;;;5.45;;
6852;SDS011;3465;42.144;24.722;2023-04-24T10:58:12;11.50;;;4.57;;
6852;SDS011;3465;42.144;24.722;2023-04-24T11:00:39;8.07;;;4.60;;
6852;SDS011;3465;42.144;24.722;2023-04-24T11:03:22;9.93;;;5.22;;
6852;SDS011;3465;42.144;24.722;2023-04-24T11:06:00;10.05;;;4.70;;
6852;SDS011;3465;42.144;24.722;2023-04-24T11:08:50;11.27;;;7.88;;
6852;SDS011;3465;42.144;24.722;2023-04-24T11:11:16;8.73;;;4.75;;
6852;SDS011;3465;42.144;24.722;2023-04-24T11:19:00;14.02;;;4.60;;
6852;SDS011;3465;42.144;24.722;2023-04-24T11:21:43;11.13;;;7.22;;
6852;SDS011;3465;42.144;24.722;2023-04-24T11:25:00;7.18;;;4.97;;
6852;SDS011;3465;42.144;24.722;2023-04-24T11:27:13;7.13;;;4.45;;
6852;SDS011;3465;42.144;24.722;2023-04-24T11:29:48;9.10;;;6.30;;
6852;SDS011;3465;42.144;24.722;2023-04-24T11:32:17;9.27;;;5.65;;
6852;SDS011;3465;42.144;24.722;2023-04-24T11:34:49;9.10;;;4.85;;
6852;SDS011;3465;42.144;24.722;2023-04-24T11:37:16;8.15;;;5.60;;
6852;SDS011;3465;42.144;24.722;2023-04-24T11:39:42;21.40;;;16.05;;
6852;SDS011;3465;42.144;24.722;2023-04-24T11:42:12;12.93;;;6.10;;
6852;SDS011;3465;42.144;24.722;2023-04-24T11:44:39;9.70;;;7.57;;
6852;SDS011;3465;42.144;24.722;2023-04-24T11:47:07;7.20;;;5.20;;
6852;SDS011;3465;42.144;24.722;2023-04-24T11:49:34;11.07;;;7.13;;
6852;SDS011;3465;42.144;24.722;2023-04-24T11:52:02;8.35;;;4.60;;
6852;SDS011;3465;42.144;24.722;2023-04-24T11:54:27;7.15;;;4.97;;
6852;SDS011;3465;42.144;24.722;2023-04-24T11:56:53;12.55;;;5.90;;
6852;SDS011;3465;42.144;24.722;2023-04-24T11:59:19;11.18;;;7.15;;
6852;SDS011;3465;42.144;24.722;2023-04-24T12:01:44;13.00;;;4.90;;
6852;SDS011;3465;42.144;24.722;2023-04-24T12:04:10;7.72;;;4.60;;
6852;SDS011;3465;42.144;24.722;2023-04-24T12:06:37;8.77;;;5.05;;
6852;SDS011;3465;42.144;24.722;2023-04-24T12:09:02;11.93;;;5.50;;
6852;SDS011;3465;42.144;24.722;2023-04-24T12:11:27;12.05;;;5.55;;
6852;SDS011;3465;42.144;24.722;2023-04-24T12:13:53;7.15;;;4.63;;
6852;SDS011;3465;42.144;24.722;2023-04-24T12:16:19;8.32;;;4.40;;
6852;SDS011;3465;42.144;24.722;2023-04-24T12:18:44;11.23;;;8.88;;
6852;SDS011;3465;42.144;24.722;2023-04-24T12:21:17;6.90;;;4.82;;
6852;SDS011;3465;42.144;24.722;2023-04-24T12:23:44;6.78;;;5.55;;
6852;SDS011;3465;42.144;24.722;2023-04-24T12:26:16;13.15;;;4.85;;
6852;SDS011;3465;42.144;24.722;2023-04-24T12:28:45;8.50;;;4.57;;
6852;SDS011;3465;42.144;24.722;2023-04-24T12:31:12;6.25;;;4.63;;
6852;SDS011;3465;42.144;24.722;2023-04-24T12:33:37;11.27;;;4.25;;
6852;SDS011;3465;42.144;24.722;2023-04-24T12:36:03;6.18;;;4.28;;
6852;SDS011;3465;42.144;24.722;2023-04-24T12:38:30;7.63;;;4.35;;
6852;SDS011;3465;42.144;24.722;2023-04-24T12:41:02;11.75;;;8.30;;
6852;SDS011;3465;42.144;24.722;2023-04-24T12:43:29;9.85;;;5.95;;
6852;SDS011;3465;42.144;24.722;2023-04-24T12:45:54;8.00;;;5.00;;
6852;SDS011;3465;42.144;24.722;2023-04-24T12:48:20;9.18;;;4.70;;
6852;SDS011;3465;42.144;24.722;2023-04-24T12:50:46;4.32;;;3.65;;
6852;SDS011;3465;42.144;24.722;2023-04-24T12:53:12;5.45;;;4.43;;
6852;SDS011;3465;42.144;24.722;2023-04-24T12:55:37;8.55;;;6.05;;
6852;SDS011;3465;42.144;24.722;2023-04-24T12:58:03;12.13;;;8.13;;
6852;SDS011;3465;42.144;24.722;2023-04-24T13:00:28;11.52;;;6.57;;
6852;SDS011;3465;42.144;24.722;2023-04-24T13:02:54;7.75;;;5.57;;
6852;SDS011;3465;42.144;24.722;2023-04-24T13:05:20;7.53;;;5.20;;
6852;SDS011;3465;42.144;24.722;2023-04-24T13:07:48;10.98;;;5.18;;
6852;SDS011;3465;42.144;24.722;2023-04-24T13:10:13;8.15;;;4.25;;
6852;SDS011;3465;42.144;24.722;2023-04-24T13:12:39;6.72;;;4.00;;
6852;SDS011;3465;42.144;24.722;2023-04-24T13:15:05;7.10;;;4.45;;
6852;SDS011;3465;42.144;24.722;2023-04-24T13:17:31;8.70;;;5.97;;
6852;SDS011;3465;42.144;24.722;2023-04-24T13:19:56;8.60;;;6.82;;
6852;SDS011;3465;42.144;24.722;2023-04-24T13:22:22;9.02;;;5.50;;
6852;SDS011;3465;42.144;24.722;2023-04-24T13:24:47;14.05;;;12.20;;
6852;SDS011;3465;42.144;24.722;2023-04-24T13:27:16;10.20;;;5.57;;
6852;SDS011;3465;42.144;24.722;2023-04-24T13:29:42;11.45;;;7.80;;
6852;SDS011;3465;42.144;24.722;2023-04-24T13:32:08;15.88;;;11.23;;
6852;SDS011;3465;42.144;24.722;2023-04-24T13:34:34;14.52;;;11.88;;
6852;SDS011;3465;42.144;24.722;2023-04-24T13:37:00;13.48;;;10.70;;
6852;SDS011;3465;42.144;24.722;2023-04-24T13:39:26;6.22;;;4.82;;
6852;SDS011;3465;42.144;24.722;2023-04-24T13:41:52;9.48;;;5.80;;
6852;SDS011;3465;42.144;24.722;2023-04-24T13:44:20;13.02;;;5.00;;
6852;SDS011;3465;42.144;24.722;2023-04-24T13:46:48;10.60;;;4.53;;
6852;SDS011;3465;42.144;24.722;2023-04-24T13:49:14;4.82;;;4.25;;
6852;SDS011;3465;42.144;24.722;2023-04-24T13:51:41;6.55;;;4.07;;
6852;SDS011;3465;42.144;24.722;2023-04-24T13:54:07;8.35;;;4.45;;
6852;SDS011;3465;42.144;24.722;2023-04-24T13:56:33;5.80;;;3.92;;
6852;SDS011;3465;42.144;24.722;2023-04-24T13:58:58;7.35;;;4.60;;
6852;SDS011;3465;42.144;24.722;2023-04-24T14:01:23;10.60;;;5.28;;
6852;SDS011;3465;42.144;24.722;2023-04-24T14:03:53;6.15;;;4.15;;
6852;SDS011;3465;42.144;24.722;2023-04-24T14:06:19;6.68;;;4.30;;
6852;SDS011;3465;42.144;24.722;2023-04-24T14:08:45;6.32;;;4.00;;
6852;SDS011;3465;42.144;24.722;2023-04-24T14:11:11;4.50;;;3.58;;
6852;SDS011;3465;42.144;24.722;2023-04-24T14:13:36;10.93;;;3.65;;
6852;SDS011;3465;42.144;24.722;2023-04-24T14:16:05;4.25;;;3.70;;
6852;SDS011;3465;42.144;24.722;2023-04-24T14:18:31;9.88;;;3.60;;
6852;SDS011;3465;42.144;24.722;2023-04-24T14:20:59;6.25;;;3.65;;
6852;SDS011;3465;42.144;24.722;2023-04-24T14:23:26;5.38;;;3.70;;
6852;SDS011;3465;42.144;24.722;2023-04-24T14:25:51;5.15;;;3.70;;
6852;SDS011;3465;42.144;24.722;2023-04-24T14:28:18;5.88;;;3.80;;
6852;SDS011;3465;42.144;24.722;2023-04-24T14:30:44;9.05;;;3.75;;
6852;SDS011;3465;42.144;24.722;2023-04-24T14:33:09;8.07;;;4.10;;
6852;SDS011;3465;42.144;24.722;2023-04-24T14:35:35;7.50;;;3.92;;
6852;SDS011;3465;42.144;24.722;2023-04-24T14:38:01;4.90;;;3.45;;
6852;SDS011;3465;42.144;24.722;2023-04-24T14:40:26;6.97;;;3.80;;
6852;SDS011;3465;42.144;24.722;2023-04-24T14:42:51;4.82;;;3.70;;
6852;SDS011;3465;42.144;24.722;2023-04-24T14:45:22;7.20;;;4.18;;
6852;SDS011;3465;42.144;24.722;2023-04-24T14:47:47;10.15;;;3.55;;
6852;SDS011;3465;42.144;24.722;2023-04-24T14:50:13;6.82;;;3.83;;
6852;SDS011;3465;42.144;24.722;2023-04-24T14:52:38;6.25;;;3.35;;
6852;SDS011;3465;42.144;24.722;2023-04-24T14:55:04;7.60;;;3.60;;
6852;SDS011;3465;42.144;24.722;2023-04-24T14:57:31;6.88;;;3.40;;
6852;SDS011;3465;42.144;24.722;2023-04-24T15:00:00;6.10;;;3.58;;